Time;durP1;ratioP1;P1;durP2;ratioP2;P2;SDS_P1;SDS_P2;PMS_P1;PMS_P2;Temp;Humidity;BMP_temperature;BMP_pressure;BME280_temperature;BME280_humidity;BME280_pressure;Samples;Min_cycle;Max_cycle;Signal;HPM_P1;HPM_P2
2021/01/05 00:04:05;;;;;;;14.40;11.27;;;;;;;4.04;71.71;99861.34;10241898;28;20496;-64
2021/01/05 00:09:06;;;;;;;16.50;12.23;;;;;;;3.99;71.71;99861.59;10261212;28;20065;-61
2021/01/05 00:14:07;;;;;;;16.48;12.70;;;;;;;3.80;72.27;99859.22;10264010;28;20121;-61
2021/01/05 00:19:08;;;;;;;15.32;11.27;;;;;;;3.76;72.39;99862.97;10250729;28;20059;-60
2021/01/05 00:24:10;;;;;;;15.02;11.52;;;;;;;3.85;72.01;99857.16;10256951;28;20075;-63
2021/01/05 00:29:11;;;;;;;14.85;11.02;;;;;;;3.85;72.12;99851.88;10265807;28;20448;-59
2021/01/05 00:34:13;;;;;;;16.30;11.48;;;;;;;3.86;71.91;99856.22;10268432;28;20388;-60
2021/01/05 00:39:14;;;;;;;14.88;11.88;;;;;;;3.83;72.20;99864.31;10257824;28;20054;-60
2021/01/05 00:44:15;;;;;;;16.08;12.13;;;;;;;3.78;72.16;99861.06;10253878;28;20307;-60
2021/01/05 00:49:16;;;;;;;14.63;11.65;;;;;;;3.88;71.64;99849.06;10259136;28;20055;-61
2021/01/05 00:54:18;;;;;;;15.80;11.68;;;;;;;3.91;71.76;99845.41;10271941;28;20058;-62
2021/01/05 00:59:19;;;;;;;15.00;12.00;;;;;;;3.91;71.68;99855.13;10266464;28;20106;-61
2021/01/05 01:04:21;;;;;;;16.55;12.23;;;;;;;3.83;71.83;99843.25;10261480;28;20185;-61
2021/01/05 01:09:22;;;;;;;15.15;11.65;;;;;;;3.80;71.83;99851.31;10264590;28;20059;-61
2021/01/05 01:14:24;;;;;;;14.27;11.25;;;;;;;3.87;71.64;99859.69;10269226;28;20058;-61
2021/01/05 01:19:25;;;;;;;14.13;11.15;;;;;;;3.89;71.81;99853.41;10269513;28;20341;-60
2021/01/05 01:24:27;;;;;;;14.88;12.90;;;;;;;3.85;71.28;99851.88;10261548;28;20050;-61
2021/01/05 01:29:28;;;;;;;14.93;11.57;;;;;;;3.82;71.66;99846.81;10268635;28;20059;-60
2021/01/05 01:34:29;;;;;;;14.57;11.05;;;;;;;3.77;72.34;99843.59;10278515;28;20214;-64
2021/01/05 01:39:32;;;;;;;17.10;11.57;;;;;;;3.68;72.71;99842.34;10272660;28;20689;-61
2021/01/05 01:44:36;;;;;;;17.65;12.95;;;;;;;3.49;73.11;99832.03;10265090;28;20038;-60
2021/01/05 01:49:38;;;;;;;14.73;11.80;;;;;;;3.56;73.20;99835.19;10275573;28;20054;-60
2021/01/05 01:54:48;;;;;;;14.95;10.88;;;;;;;3.55;72.85;99838.75;10270666;28;20536;-61
2021/01/05 02:00:22;;;;;;;14.50;11.80;;;;;;;3.74;72.30;99842.91;10277290;28;20066;-61
2021/01/05 02:05:41;;;;;;;14.98;11.05;;;;;;;3.65;72.30;99844.34;10277191;28;20090;-61
2021/01/05 02:11:06;;;;;;;14.93;11.35;;;;;;;3.67;72.46;99840.66;10262387;28;20055;-61
2021/01/05 02:16:32;;;;;;;14.13;11.15;;;;;;;3.69;72.14;99843.19;10250552;28;20090;-61
2021/01/05 02:22:05;;;;;;;14.65;11.18;;;;;;;3.73;72.23;99839.44;10268219;28;20046;-62
2021/01/05 02:27:09;;;;;;;13.70;10.70;;;;;;;3.63;72.57;99835.66;10250801;28;20054;-61
2021/01/05 02:32:24;;;;;;;14.40;9.90;;;;;;;3.61;72.84;99827.00;10257505;28;20051;-61
2021/01/05 02:37:32;;;;;;;15.07;10.38;;;;;;;3.69;72.74;99830.91;10256299;28;20105;-61
2021/01/05 02:42:51;;;;;;;12.93;10.13;;;;;;;3.70;72.60;99832.56;10270619;28;20069;-61
2021/01/05 02:48:18;;;;;;;14.93;10.70;;;;;;;3.66;72.40;99840.75;10261116;28;20062;-64
2021/01/05 02:53:38;;;;;;;11.52;9.85;;;;;;;3.74;72.02;99832.38;10250922;28;20051;-64
2021/01/05 02:59:31;;;;;;;14.68;10.32;;;;;;;3.79;71.71;99831.19;10272889;28;20487;-61
2021/01/05 03:04:33;;;;;;;12.85;10.05;;;;;;;3.79;71.36;99833.81;10260881;28;20085;-66
2021/01/05 03:09:43;;;;;;;13.10;10.48;;;;;;;3.72;71.66;99833.34;10254372;28;20050;-60
2021/01/05 03:15:07;;;;;;;11.90;9.43;;;;;;;3.69;71.46;99830.03;10263791;28;20096;-61
2021/01/05 03:20:29;;;;;;;10.70;8.90;;;;;;;3.79;71.32;99831.19;10257491;28;20051;-60
2021/01/05 03:25:34;;;;;;;10.52;9.20;;;;;;;3.67;71.60;99829.28;10271721;28;20391;-61
2021/01/05 03:30:39;;;;;;;12.35;9.63;;;;;;;3.69;71.48;99840.56;10259750;28;20042;-60
2021/01/05 03:35:41;;;;;;;11.63;9.35;;;;;;;3.74;71.64;99843.78;10248318;28;20046;-61
2021/01/05 03:40:42;;;;;;;12.52;8.93;;;;;;;3.72;71.25;99829.84;10244980;28;20821;-60
2021/01/05 03:45:43;;;;;;;11.93;8.77;;;;;;;3.80;71.08;99832.91;10256657;28;20046;-64
2021/01/05 03:50:45;;;;;;;11.05;8.40;;;;;;;3.70;71.05;99823.84;10260346;28;20062;-60
2021/01/05 03:55:46;;;;;;;11.23;8.50;;;;;;;3.61;71.64;99819.13;10266728;28;20392;-61
2021/01/05 04:00:48;;;;;;;10.00;8.70;;;;;;;3.61;71.74;99832.28;10256872;28;20093;-62
2021/01/05 04:05:49;;;;;;;10.93;9.35;;;;;;;3.64;71.76;99834.72;10257290;28;20495;-62
2021/01/05 04:10:50;;;;;;;10.68;8.60;;;;;;;3.70;71.68;99831.72;10245759;28;20109;-61
2021/01/05 04:15:52;;;;;;;11.32;9.30;;;;;;;3.69;71.65;99822.13;10256855;28;20145;-61
2021/01/05 04:20:53;;;;;;;12.70;9.60;;;;;;;3.76;71.07;99822.63;10266972;28;20046;-62
2021/01/05 04:25:54;;;;;;;10.93;9.15;;;;;;;3.62;71.77;99824.28;10267117;28;20043;-59
2021/01/05 04:30:56;;;;;;;13.45;9.98;;;;;;;3.72;71.43;99824.59;10280838;28;20051;-60
2021/01/05 04:36:02;;;;;;;11.82;9.35;;;;;;;3.80;71.50;99832.03;10279210;28;20137;-60
2021/01/05 04:41:04;;;;;;;12.35;10.25;;;;;;;3.77;71.45;99830.44;10269697;28;20053;-60
2021/01/05 04:46:17;;;;;;;10.98;9.48;;;;;;;3.68;71.66;99838.88;10258422;28;20051;-60
2021/01/05 04:51:34;;;;;;;12.82;10.02;;;;;;;3.63;72.04;99840.91;10262506;28;20063;-60
2021/01/05 04:56:56;;;;;;;16.10;11.48;;;;;;;3.72;72.16;99843.00;10278307;28;22733;-59
2021/01/05 05:01:59;;;;;;;15.60;11.52;;;;;;;3.56;72.16;99839.56;10350084;23;20113;-67
2021/01/05 05:07:26;;;;;;;15.32;10.60;;;;;;;3.45;72.93;99854.22;10341680;28;20137;-67
2021/01/05 05:13:03;;;;;;;14.68;10.70;;;;;;;3.53;72.78;99854.63;10363792;28;20099;-67
2021/01/05 05:18:22;;;;;;;12.95;10.23;;;;;;;3.63;72.52;99851.44;10307911;28;20104;-67
2021/01/05 05:23:37;;;;;;;15.15;10.98;;;;;;;3.62;72.33;99855.00;10319069;28;20146;-67
2021/01/05 05:28:48;;;;;;;14.18;11.15;;;;;;;3.76;72.31;99855.06;10362249;28;20049;-67
2021/01/05 05:33:54;;;;;;;13.75;10.88;;;;;;;3.67;72.06;99838.03;10343907;28;20534;-67
2021/01/05 05:39:37;;;;;;;14.88;11.35;;;;;;;3.70;72.78;99853.63;10346471;28;20049;-67
2021/01/05 05:44:46;;;;;;;18.02;13.40;;;;;;;3.76;72.41;99877.94;10345113;28;20141;-66
2021/01/05 05:49:54;;;;;;;16.52;11.70;;;;;;;3.76;72.49;99865.59;10347738;28;20038;-66
2021/01/05 05:54:57;;;;;;;17.30;12.60;;;;;;;3.86;72.51;99869.41;10347699;28;20050;-66
2021/01/05 06:00:23;;;;;;;15.68;12.50;;;;;;;3.64;73.88;99864.53;10350059;28;20124;-67
2021/01/05 06:05:36;;;;;;;16.88;12.05;;;;;;;3.73;73.97;99873.69;10347498;28;20053;-65
2021/01/05 06:10:37;;;;;;;18.85;13.48;;;;;;;3.60;74.69;99863.00;10330736;28;20054;-66
2021/01/05 06:15:39;;;;;;;16.30;13.10;;;;;;;3.75;74.46;99877.06;10333896;28;20486;-66
2021/01/05 06:20:40;;;;;;;16.40;13.57;;;;;;;3.73;74.95;99876.31;10335561;28;20059;-66
2021/01/05 06:25:42;;;;;;;17.10;12.02;;;;;;;3.76;74.91;99870.88;10337507;28;20053;-67
2021/01/05 06:30:43;;;;;;;16.23;13.05;;;;;;;3.71;74.70;99862.41;10328484;28;20090;-67
2021/01/05 06:35:45;;;;;;;19.13;14.57;;;;;;;3.80;75.26;99877.66;10338400;28;20049;-66
2021/01/05 06:40:46;;;;;;;16.70;12.85;;;;;;;3.69;74.81;99883.53;10337804;28;20616;-68
2021/01/05 06:45:47;;;;;;;18.27;14.43;;;;;;;3.68;75.60;99883.63;10340303;28;20107;-66
2021/01/05 06:50:49;;;;;;;20.55;13.75;;;;;;;3.74;75.04;99888.53;10354271;28;20070;-67
2021/01/05 06:55:50;;;;;;;17.65;12.80;;;;;;;3.72;75.40;99882.50;10324881;28;20129;-67
2021/01/05 07:00:51;;;;;;;17.65;14.02;;;;;;;3.81;75.34;99887.22;10353958;28;20065;-67
2021/01/05 07:05:53;;;;;;;19.50;13.70;;;;;;;3.78;75.37;99890.03;10338117;28;20076;-67
2021/01/05 07:10:54;;;;;;;19.25;15.18;;;;;;;3.79;75.09;99894.38;10343981;28;20512;-67
2021/01/05 07:15:56;;;;;;;20.67;14.60;;;;;;;3.89;74.65;99906.06;10338147;28;20056;-67
2021/01/05 07:20:57;;;;;;;18.20;13.15;;;;;;;3.90;74.92;99909.53;10331353;28;20133;-65
2021/01/05 07:25:59;;;;;;;23.02;16.88;;;;;;;3.88;74.78;99904.38;10330190;28;20049;-66
2021/01/05 07:31:02;;;;;;;18.10;13.70;;;;;;;3.85;74.46;99888.75;10345001;28;20069;-65
2021/01/05 07:36:09;;;;;;;18.33;14.23;;;;;;;3.94;74.61;99913.72;10330783;28;20135;-65
2021/01/05 07:41:11;;;;;;;19.40;13.65;;;;;;;3.88;74.81;99904.38;10328519;28;20069;-65
2021/01/05 07:46:15;;;;;;;20.63;14.95;;;;;;;3.72;74.81;99900.94;10329703;28;20058;-65
2021/01/05 07:51:18;;;;;;;19.08;15.82;;;;;;;3.78;75.00;99903.22;10350671;28;20536;-68
2021/01/05 07:56:22;;;;;;;19.10;14.57;;;;;;;4.00;74.64;99925.69;10327379;28;20401;-64
2021/01/05 08:01:34;;;;;;;19.13;14.35;;;;;;;3.98;75.13;99930.16;10329427;28;20136;-65
2021/01/05 08:06:41;;;;;;;20.13;14.25;;;;;;;4.63;80.82;99924.56;10333674;28;20587;-66
2021/01/05 08:11:44;;;;;;;19.15;14.23;;;;;;;4.60;73.53;99925.56;10331158;28;20944;-64
2021/01/05 08:16:50;;;;;;;18.20;13.97;;;;;;;4.34;74.16;99931.56;10332875;28;24463;-62
2021/01/05 08:21:54;;;;;;;20.38;14.98;;;;;;;4.21;74.87;99934.94;10334539;28;20111;-64
2021/01/05 08:26:57;;;;;;;20.65;15.05;;;;;;;4.16;74.80;99922.97;10333500;28;20054;-64
2021/01/05 08:31:59;;;;;;;18.40;13.80;;;;;;;4.23;74.21;99930.44;10331520;28;20096;-65
2021/01/05 08:37:02;;;;;;;18.80;14.95;;;;;;;4.31;74.49;99934.38;10331561;28;20058;-64
2021/01/05 08:42:04;;;;;;;19.45;14.18;;;;;;;4.19;74.17;99926.28;10315717;28;20042;-66
2021/01/05 08:47:05;;;;;;;21.25;16.35;;;;;;;4.30;74.42;99945.88;10335130;28;20072;-65
2021/01/05 08:52:06;;;;;;;20.17;15.30;;;;;;;4.30;74.53;99945.88;10327194;28;20476;-65
2021/01/05 08:57:13;;;;;;;21.13;14.95;;;;;;;4.27;74.43;99946.06;10342973;28;20053;-66
2021/01/05 09:02:14;;;;;;;34.25;24.15;;;;;;;4.27;74.51;99944.28;10357260;28;20046;-66
2021/01/05 09:07:19;;;;;;;21.60;15.38;;;;;;;4.32;74.54;99944.84;10342444;28;20042;-66
2021/01/05 09:12:20;;;;;;;;;;;;;;;4.22;74.43;99944.56;10341963;28;20053;-66
2021/01/05 09:17:21;;;;;;;20.98;15.55;;;;;;;4.23;74.59;99934.84;10338110;28;19964;-65
2021/01/05 09:22:27;;;;;;;22.35;17.42;;;;;;;4.29;74.10;99933.66;10333498;28;20271;-66
2021/01/05 09:27:28;;;;;;;21.65;16.40;;;;;;;4.37;74.10;99939.31;10338105;28;20054;-65
2021/01/05 09:32:34;;;;;;;31.17;24.48;;;;;;;4.19;74.09;99901.75;10352306;28;20077;-65
2021/01/05 09:37:39;;;;;;;19.63;14.55;;;;;;;4.43;73.80;99946.84;10349855;28;20104;-65
2021/01/05 09:42:41;;;;;;;20.33;15.32;;;;;;;4.60;74.91;99941.41;10336244;28;20053;-65
2021/01/05 09:47:43;;;;;;;18.60;14.68;;;;;;;4.64;73.27;99943.84;10351042;28;20493;-66
2021/01/05 09:52:44;;;;;;;18.70;14.63;;;;;;;4.71;72.43;99945.19;10336232;28;20557;-65
2021/01/05 09:57:47;;;;;;;17.20;13.85;;;;;;;4.76;73.44;99917.59;10336799;28;20049;-67
2021/01/05 10:02:48;;;;;;;17.83;13.88;;;;;;;4.93;71.95;99935.00;10338302;28;20054;-65
2021/01/05 10:07:50;;;;;;;16.17;12.45;;;;;;;4.91;71.53;99934.25;10339277;28;20057;-65
2021/01/05 10:12:52;;;;;;;14.93;12.88;;;;;;;4.83;71.90;99928.59;10340021;28;20080;-68
2021/01/05 10:17:54;;;;;;;15.00;10.80;;;;;;;4.81;72.11;99914.66;10354553;28;20052;-66
2021/01/05 10:22:58;;;;;;;13.77;10.88;;;;;;;4.62;72.87;99914.94;10339428;28;20334;-66
2021/01/05 10:28:00;;;;;;;12.75;10.60;;;;;;;4.74;72.39;99916.84;10337859;28;20104;-66
2021/01/05 10:33:01;;;;;;;13.48;10.38;;;;;;;4.70;72.54;99896.88;10321162;28;20057;-67
2021/01/05 10:38:03;;;;;;;13.32;10.40;;;;;;;4.64;72.40;99925.38;10334524;28;20591;-66
2021/01/05 10:43:04;;;;;;;12.85;10.02;;;;;;;4.56;72.51;99910.91;10333767;28;20054;-68
2021/01/05 10:48:06;;;;;;;11.77;10.00;;;;;;;4.77;72.11;99918.44;10348470;28;20056;-66
2021/01/05 10:53:08;;;;;;;13.43;9.88;;;;;;;4.65;72.15;99930.56;10355205;28;20053;-66
2021/01/05 10:58:10;;;;;;;12.55;10.07;;;;;;;4.56;72.14;99931.13;10333898;28;20054;-66
2021/01/05 11:03:12;;;;;;;13.23;10.25;;;;;;;4.57;72.20;99923.13;10335897;23;20060;-59
2021/01/05 11:08:14;;;;;;;12.48;9.57;;;;;;;4.71;72.10;99914.38;10303445;28;20514;-60
2021/01/05 11:13:17;;;;;;;13.93;10.90;;;;;;;4.73;71.76;99911.66;10299527;28;21403;-59
2021/01/05 11:18:19;;;;;;;14.60;10.98;;;;;;;4.84;71.73;99908.38;10292020;28;20548;-60
2021/01/05 11:23:23;;;;;;;12.50;10.10;;;;;;;4.90;71.39;99902.69;10291824;28;20415;-60
2021/01/05 11:28:26;;;;;;;11.85;8.98;;;;;;;5.00;71.30;99909.09;10291301;28;20050;-60
2021/01/05 11:33:28;;;;;;;13.23;9.68;;;;;;;5.02;70.35;99896.66;10286857;28;20200;-61
2021/01/05 11:38:30;;;;;;;11.93;9.80;;;;;;;5.08;70.46;99895.41;10290762;28;20104;-59
2021/01/05 11:43:45;;;;;;;11.75;8.93;;;;;;;5.08;70.30;99879.59;10306899;28;20545;-59
2021/01/05 11:48:48;;;;;;;10.63;8.77;;;;;;;5.07;70.09;99869.97;10288582;28;20221;-59
2021/01/05 11:53:49;;;;;;;12.13;9.77;;;;;;;5.02;70.20;99856.25;10310064;28;20111;-60
2021/01/05 11:58:52;;;;;;;12.98;9.95;;;;;;;5.12;70.56;99862.63;10289535;28;20130;-59
2021/01/05 12:03:53;;;;;;;13.43;10.25;;;;;;;5.03;71.26;99860.56;10288807;28;20579;-59
2021/01/05 12:08:55;;;;;;;12.43;9.88;;;;;;;4.98;71.51;99857.38;10287495;28;20045;-59
2021/01/05 12:13:57;;;;;;;12.45;10.27;;;;;;;5.18;71.19;99864.88;10289906;28;20042;-59
2021/01/05 12:19:21;;;;;;;13.75;11.10;;;;;;;5.31;70.34;99865.78;10289598;28;20070;-59
2021/01/05 12:24:27;;;;;;;12.57;10.30;;;;;;;5.11;69.66;99853.00;10297543;28;20053;-59
2021/01/05 12:29:31;;;;;;;11.02;9.73;;;;;;;5.03;70.92;99853.50;10296605;28;20136;-61
2021/01/05 12:34:35;;;;;;;13.30;11.30;;;;;;;5.05;70.97;99854.25;10295049;28;20878;-58
2021/01/05 12:39:37;;;;;;;13.93;11.37;;;;;;;5.13;71.08;99851.09;10289770;28;22797;-59
2021/01/05 12:44:38;;;;;;;13.55;10.93;;;;;;;5.02;71.19;99846.53;10296263;28;20102;-59
2021/01/05 12:49:40;;;;;;;13.85;10.52;;;;;;;5.05;71.20;99840.22;10311750;28;20451;-59
2021/01/05 12:54:42;;;;;;;15.05;10.73;;;;;;;5.12;70.31;99841.53;10295366;28;20708;-59
2021/01/05 12:59:48;;;;;;;13.70;10.45;;;;;;;5.18;69.91;99846.41;10300965;28;20062;-59
2021/01/05 13:04:49;;;;;;;11.82;10.32;;;;;;;5.21;68.77;99838.28;10307941;28;20137;-60
2021/01/05 13:09:56;;;;;;;13.38;10.27;;;;;;;5.29;68.63;99857.09;10298001;28;20050;-60
2021/01/05 13:14:57;;;;;;;12.45;9.40;;;;;;;5.17;69.13;99854.41;10300428;28;20049;-59
2021/01/05 13:19:58;;;;;;;12.63;10.50;;;;;;;5.08;69.48;99859.31;10297198;28;20058;-59
2021/01/05 13:25:01;;;;;;;11.05;9.10;;;;;;;5.01;69.16;99850.09;10299036;28;20473;-59
2021/01/05 13:30:07;;;;;;;10.85;9.85;;;;;;;5.13;68.97;99864.31;10293084;28;20061;-59
2021/01/05 13:35:09;;;;;;;10.30;8.90;;;;;;;5.17;69.28;99863.16;10294234;28;20058;-59
2021/01/05 13:40:10;;;;;;;9.70;8.57;;;;;;;5.26;68.68;99862.56;10293823;28;20217;-60
2021/01/05 13:45:12;;;;;;;9.60;7.78;;;;;;;5.16;68.52;99861.47;10297936;28;20672;-60
2021/01/05 13:50:14;;;;;;;8.77;7.20;;;;;;;5.14;68.84;99863.38;10299760;28;20492;-59
2021/01/05 13:55:19;;;;;;;11.35;8.85;;;;;;;5.17;68.58;99857.06;10296548;28;20113;-60
2021/01/05 14:00:20;;;;;;;9.18;7.40;;;;;;;5.25;68.18;99860.03;10295290;28;20775;-59
2021/01/05 14:05:21;;;;;;;8.95;7.63;;;;;;;5.12;69.04;99860.00;10311544;28;20194;-60
2021/01/05 14:10:23;;;;;;;8.75;7.15;;;;;;;5.25;68.23;99854.75;10296730;28;20801;-60
2021/01/05 14:15:26;;;;;;;9.25;7.05;;;;;;;5.18;68.28;99864.88;10310005;28;20045;-60
2021/01/05 14:20:27;;;;;;;8.90;6.88;;;;;;;5.21;67.97;99854.13;10312006;28;20055;-59
2021/01/05 14:25:29;;;;;;;8.18;6.72;;;;;;;5.16;68.73;99861.47;10295402;28;20068;-60
2021/01/05 14:30:30;;;;;;;7.88;6.53;;;;;;;5.19;68.22;99865.69;10295797;28;20082;-60
2021/01/05 14:35:32;;;;;;;7.10;6.18;;;;;;;4.87;69.71;99881.78;10294588;28;20066;-60
2021/01/05 14:40:33;;;;;;;8.52;7.03;;;;;;;4.92;69.27;99880.56;10304639;28;20061;-60
2021/01/05 14:45:35;;;;;;;7.93;6.68;;;;;;;4.89;69.63;99885.16;10297442;28;20053;-60
2021/01/05 14:50:36;;;;;;;8.70;7.15;;;;;;;4.90;70.11;99892.16;10288886;28;20073;-59
2021/01/05 14:55:38;;;;;;;7.95;6.40;;;;;;;4.98;70.26;99895.13;10304465;28;20077;-59
2021/01/05 15:00:39;;;;;;;7.15;6.20;;;;;;;4.89;70.76;99891.28;10297000;28;20050;-60
2021/01/05 15:05:41;;;;;;;8.63;7.03;;;;;;;4.77;70.25;99892.91;10296229;28;20351;-59
2021/01/05 15:10:43;;;;;;;9.27;7.50;;;;;;;4.70;71.28;99890.72;10296489;28;20522;-60
2021/01/05 15:15:44;;;;;;;10.77;8.05;;;;;;;4.72;70.97;99888.88;10297221;28;20153;-59
2021/01/05 15:20:45;;;;;;;9.07;7.72;;;;;;;4.79;70.81;99906.00;10308916;28;20100;-60
2021/01/05 15:25:46;;;;;;;10.80;8.13;;;;;;;4.75;71.25;99907.13;10295008;28;20254;-60
2021/01/05 15:30:48;;;;;;;10.18;8.13;;;;;;;4.73;71.26;99916.94;10296888;28;20049;-59
2021/01/05 15:35:49;;;;;;;9.55;8.07;;;;;;;4.74;71.37;99916.84;10294728;28;20159;-59
2021/01/05 15:40:51;;;;;;;9.68;8.35;;;;;;;4.76;71.64;99903.56;10296474;28;20503;-59
2021/01/05 15:45:52;;;;;;;9.93;8.27;;;;;;;4.67;72.18;99910.25;10291220;28;20144;-59
2021/01/05 15:50:58;;;;;;;10.15;8.25;;;;;;;4.74;71.93;99898.38;10287255;28;20049;-60
2021/01/05 15:55:59;;;;;;;10.30;8.52;;;;;;;4.71;72.10;99914.38;10282092;28;20050;-60
2021/01/05 16:01:00;;;;;;;13.18;9.13;;;;;;;4.76;72.16;99922.03;10293476;28;20602;-59
2021/01/05 16:06:02;;;;;;;10.73;9.48;;;;;;;4.82;71.57;99916.38;10281476;28;20058;-59
2021/01/05 16:11:03;;;;;;;11.50;10.27;;;;;;;4.82;71.49;99907.59;10294719;28;20074;-59
2021/01/05 16:16:05;;;;;;;11.95;10.65;;;;;;;4.92;71.52;99914.84;10292145;28;20058;-59
2021/01/05 16:21:09;;;;;;;10.25;9.10;;;;;;;4.89;70.70;99907.09;10287989;28;20438;-59
2021/01/05 16:26:10;;;;;;;11.00;9.13;;;;;;;4.89;70.89;99915.03;10282285;28;20537;-59
2021/01/05 16:31:12;;;;;;;13.82;10.95;;;;;;;4.85;71.95;99915.31;10271850;28;20057;-60
2021/01/05 16:36:14;;;;;;;12.77;9.52;;;;;;;4.93;71.08;99918.34;10281566;28;20061;-60
2021/01/05 16:41:16;;;;;;;11.80;10.18;;;;;;;4.85;71.16;99918.81;10289062;28;21070;-61
2021/01/05 16:46:17;;;;;;;10.73;9.63;;;;;;;4.79;70.86;99921.84;10286849;28;20069;-60
2021/01/05 16:51:18;;;;;;;13.07;10.27;;;;;;;4.77;70.90;99915.78;10300550;28;20058;-60
2021/01/05 16:56:24;;;;;;;11.38;10.23;;;;;;;4.77;71.10;99913.16;10286385;28;20173;-60
2021/01/05 17:01:25;;;;;;;11.18;9.73;;;;;;;4.58;70.83;99911.66;10284812;28;20507;-60
2021/01/05 17:06:45;;;;;;;11.20;10.00;;;;;;;4.77;70.97;99929.84;10290638;23;20533;-61
2021/01/05 17:11:47;;;;;;;12.02;10.60;;;;;;;4.81;70.79;99919.94;10242637;28;20054;-61
2021/01/05 17:16:58;;;;;;;12.85;9.82;;;;;;;4.71;70.83;99919.63;10246792;28;20478;-61
2021/01/05 17:22:03;;;;;;;12.38;10.00;;;;;;;4.64;71.49;99920.13;10284864;28;20045;-62
2021/01/05 17:27:11;;;;;;;12.02;10.23;;;;;;;4.70;71.44;99927.66;10278771;28;20042;-61
2021/01/05 17:32:15;;;;;;;12.25;10.95;;;;;;;4.77;71.65;99931.59;10282983;28;20047;-61
2021/01/05 17:37:17;;;;;;;10.77;9.63;;;;;;;4.73;71.69;99938.03;10284771;28;20077;-61
2021/01/05 17:42:18;;;;;;;11.27;10.02;;;;;;;4.65;72.20;99940.28;10283272;28;20046;-60
2021/01/05 17:47:20;;;;;;;13.80;10.68;;;;;;;4.65;72.78;99937.63;10286918;28;20049;-60
2021/01/05 17:52:21;;;;;;;12.02;9.88;;;;;;;4.69;72.80;99936.53;10282842;28;20050;-61
2021/01/05 17:57:22;;;;;;;13.43;11.07;;;;;;;4.67;72.94;99941.88;10280790;28;20050;-61
2021/01/05 18:02:24;;;;;;;13.00;10.50;;;;;;;4.58;73.54;99938.03;10283158;28;20069;-61
2021/01/05 18:07:25;;;;;;;12.73;10.27;;;;;;;4.55;73.56;99946.13;10281337;28;20189;-60
2021/01/05 18:12:27;;;;;;;13.90;11.50;;;;;;;4.63;73.62;99943.00;10305327;28;20231;-61
2021/01/05 18:17:28;;;;;;;14.52;12.07;;;;;;;4.67;73.52;99927.84;10310276;28;21187;-61
2021/01/05 18:22:29;;;;;;;14.05;10.73;;;;;;;4.56;73.83;99932.00;10302343;28;20051;-60
2021/01/05 18:27:30;;;;;;;13.35;10.68;;;;;;;4.58;73.58;99935.38;10283230;28;20148;-61
2021/01/05 18:32:33;;;;;;;12.82;10.95;;;;;;;4.46;74.24;99930.84;10284184;28;20070;-61
2021/01/05 18:37:38;;;;;;;13.73;11.50;;;;;;;4.48;73.82;99923.69;10285115;28;20065;-61
2021/01/05 18:42:39;;;;;;;14.93;12.43;;;;;;;5.32;83.23;99925.50;10278880;28;20100;-58
2021/01/05 18:47:40;;;;;;;13.10;10.52;;;;;;;5.48;72.00;99921.91;10288050;28;20054;-61
2021/01/05 18:52:42;;;;;;;13.85;10.75;;;;;;;5.06;71.93;99919.25;10259914;28;20077;-61
2021/01/05 18:57:47;;;;;;;14.15;11.40;;;;;;;4.80;73.07;99918.22;10264554;28;20066;-61
2021/01/05 19:02:50;;;;;;;16.17;13.82;;;;;;;4.63;73.82;99910.53;10253503;28;20152;-62
2021/01/05 19:07:52;;;;;;;14.07;12.32;;;;;;;4.62;74.00;99920.22;10252683;28;20054;-61
2021/01/05 19:12:57;;;;;;;13.73;11.60;;;;;;;4.64;73.82;99925.38;10274061;28;20046;-61
2021/01/05 19:17:59;;;;;;;14.30;11.77;;;;;;;4.58;73.85;99916.94;10259758;28;20054;-65
2021/01/05 19:23:02;;;;;;;13.35;10.80;;;;;;;4.47;74.36;99915.88;10283408;28;20053;-61
2021/01/05 19:28:08;;;;;;;12.77;10.30;;;;;;;4.43;74.53;99920.50;10284344;28;20057;-62
2021/01/05 19:33:10;;;;;;;12.27;10.25;;;;;;;4.41;74.57;99917.09;10286679;28;20046;-62
2021/01/05 19:38:11;;;;;;;12.68;10.18;;;;;;;4.36;74.43;99924.44;10279937;28;20144;-60
2021/01/05 19:43:15;;;;;;;11.93;9.95;;;;;;;4.27;75.19;99935.53;10283148;28;20559;-61
2021/01/05 19:48:16;;;;;;;10.80;9.38;;;;;;;4.25;75.18;99923.28;10284229;28;20050;-61
2021/01/05 19:53:19;;;;;;;12.10;10.45;;;;;;;4.19;75.44;99918.38;10279209;28;20050;-61
2021/01/05 19:58:21;;;;;;;11.05;9.65;;;;;;;4.13;75.86;99923.16;10281059;28;20507;-62
2021/01/05 20:03:26;;;;;;;10.52;9.52;;;;;;;4.04;76.31;99935.09;10275349;28;20046;-61
2021/01/05 20:08:27;;;;;;;10.02;8.82;;;;;;;3.84;76.73;99929.22;10279982;28;20481;-61
2021/01/05 20:13:29;;;;;;;9.60;8.65;;;;;;;4.11;76.41;99939.06;10275612;28;20086;-62
2021/01/05 20:18:31;;;;;;;11.15;8.43;;;;;;;4.14;75.68;99938.88;10277761;28;20074;-61
2021/01/05 20:23:32;;;;;;;10.05;8.35;;;;;;;4.05;75.98;99940.28;10246727;28;20317;-61
2021/01/05 20:28:51;;;;;;;10.05;8.60;;;;;;;4.07;75.99;99940.19;10280473;28;20079;-61
2021/01/05 20:33:53;;;;;;;10.68;9.57;;;;;;;3.97;75.81;99933.75;10280561;28;20046;-62
2021/01/05 20:38:55;;;;;;;11.07;9.85;;;;;;;3.89;76.28;99932.41;10281618;28;20046;-60
2021/01/05 20:43:58;;;;;;;10.35;9.25;;;;;;;3.85;76.91;99933.50;10282538;28;20674;-60
2021/01/05 20:48:59;;;;;;;11.40;9.93;;;;;;;3.92;76.48;99930.53;10285158;28;21684;-61
2021/01/05 20:54:01;;;;;;;10.13;9.10;;;;;;;3.96;76.31;99932.06;10269484;28;20054;-64
2021/01/05 20:59:03;;;;;;;11.15;9.80;;;;;;;4.05;76.06;99934.16;10272016;28;20611;-61
2021/01/05 21:04:06;;;;;;;11.68;9.57;;;;;;;4.09;76.11;99938.31;10268826;28;20042;-60
2021/01/05 21:09:12;;;;;;;11.07;9.52;;;;;;;4.14;75.83;99940.66;10273600;28;20057;-61
2021/01/05 21:14:13;;;;;;;13.80;11.30;;;;;;;4.09;75.83;99948.84;10261786;28;20455;-61
2021/01/05 21:19:15;;;;;;;12.88;10.20;;;;;;;4.06;75.95;99936.69;10271895;28;20050;-60
2021/01/05 21:24:20;;;;;;;10.15;9.05;;;;;;;4.13;76.13;99929.28;10281785;28;20096;-60
2021/01/05 21:29:21;;;;;;;11.82;10.18;;;;;;;4.10;75.84;99921.56;10311149;28;20430;-62
2021/01/05 21:34:26;;;;;;;12.82;10.40;;;;;;;4.13;75.78;99929.28;10319790;28;20545;-60
2021/01/05 21:39:28;;;;;;;12.30;10.00;;;;;;;4.07;76.07;99924.38;10326717;28;20113;-61
2021/01/05 21:44:30;;;;;;;105.82;74.75;;;;;;;4.07;76.21;99917.31;10325288;28;20061;-60
2021/01/05 21:49:32;;;;;;;10.43;9.35;;;;;;;4.00;76.72;99915.13;10326526;28;20049;-60
2021/01/05 21:54:33;;;;;;;11.57;9.82;;;;;;;3.99;76.46;99916.06;10322403;28;20053;-60
2021/01/05 21:59:34;;;;;;;11.40;9.98;;;;;;;4.13;76.09;99923.16;10321722;28;20050;-60
2021/01/05 22:04:35;;;;;;;11.70;9.68;;;;;;;4.15;75.89;99921.28;10319153;28;20058;-60
2021/01/05 22:09:37;;;;;;;13.85;10.52;;;;;;;4.05;76.41;99921.84;10323930;28;20050;-61
2021/01/05 22:14:38;;;;;;;11.38;10.27;;;;;;;4.10;76.21;99908.41;10319353;28;20054;-62
2021/01/05 22:19:39;;;;;;;11.63;10.23;;;;;;;4.14;76.17;99904.63;10318593;28;20066;-61
2021/01/05 22:24:40;;;;;;;10.02;9.00;;;;;;;4.15;76.00;99914.22;10323139;28;20054;-60
2021/01/05 22:29:41;;;;;;;10.60;9.50;;;;;;;4.12;75.95;99906.50;10297716;28;20153;-60
2021/01/05 22:34:43;;;;;;;10.10;8.32;;;;;;;3.96;76.69;99910.97;10322119;28;20050;-60
2021/01/05 22:39:44;;;;;;;9.80;8.85;;;;;;;4.01;76.53;99914.22;10323034;28;20057;-60
2021/01/05 22:44:45;;;;;;;43.08;30.80;;;;;;;4.10;76.87;99926.84;10330399;28;20071;-60
2021/01/05 22:49:46;;;;;;;8.90;8.00;;;;;;;4.00;76.36;99921.25;10327171;28;20077;-61
2021/01/05 22:54:47;;;;;;;9.25;8.15;;;;;;;3.93;76.92;99919.06;10320482;28;20112;-60
2021/01/05 22:59:49;;;;;;;8.35;7.40;;;;;;;3.91;76.99;99902.50;10307696;28;20116;-61
2021/01/05 23:04:50;;;;;;;8.38;7.57;;;;;;;3.87;77.06;99897.44;10275212;28;20549;-60
2021/01/05 23:09:52;;;;;;;8.00;7.20;;;;;;;3.92;76.68;99904.19;10378903;23;20049;-68
2021/01/05 23:14:53;;;;;;;8.80;7.95;;;;;;;3.89;76.94;99895.53;10383606;28;20045;-68
2021/01/05 23:19:54;;;;;;;9.02;8.13;;;;;;;3.86;76.58;99890.47;10378722;28;20052;-68
2021/01/05 23:24:57;;;;;;;7.97;7.18;;;;;;;3.86;76.71;99890.47;10334830;28;20168;-67
2021/01/05 23:30:08;;;;;;;8.40;7.53;;;;;;;3.79;77.04;99873.31;10347342;28;20052;-66